Time;durP1;ratioP1;P1;durP2;ratioP2;P2;SDS_P1;SDS_P2;PMS_P1;PMS_P2;Temp;Humidity;BMP_temperature;BMP_pressure;BME280_temperature;BME280_humidity;BME280_pressure;Samples;Min_cycle;Max_cycle;Signal;HPM_P1;HPM_P2
2022/11/10 00:00:54;;;;;;;6.40;3.50;;;11.90;99.90;;;;;;4978963;28;20632;-87
2022/11/10 00:03:22;;;;;;;2.80;2.60;;;12.00;99.90;;;;;;4977895;28;20656;-87
2022/11/10 00:05:49;;;;;;;3.50;3.03;;;11.90;99.90;;;;;;4978648;28;20628;-87
2022/11/10 00:08:15;;;;;;;7.83;3.30;;;11.80;99.90;;;;;;4977805;28;20664;-86
2022/11/10 00:10:57;;;;;;;3.67;3.37;;;11.80;99.90;;;;;;4978846;28;20667;-87
2022/11/10 00:13:27;;;;;;;3.67;3.10;;;11.80;99.90;;;;;;4977479;28;20635;-87
2022/11/10 00:18:38;;;;;;;3.43;3.13;;;11.90;99.90;;;;;;4982763;28;20648;-86
2022/11/10 00:21:08;;;;;;;3.70;3.40;;;11.70;99.90;;;;;;4984105;28;21228;-87
2022/11/10 00:23:35;;;;;;;3.30;3.00;;;12.20;99.90;;;;;;4983072;28;20636;-87
2022/11/10 00:26:02;;;;;;;3.47;3.17;;;11.70;99.90;;;;;;4987172;28;20639;-87
2022/11/10 00:28:31;;;;;;;3.23;2.93;;;11.70;99.90;;;;;;4983117;28;21048;-89
2022/11/10 00:30:59;;;;;;;4.30;3.27;;;11.90;99.90;;;;;;4985210;28;20632;-88
2022/11/10 00:33:26;;;;;;;5.67;3.60;;;11.70;99.90;;;;;;4986861;28;20641;-88
2022/11/10 00:35:52;;;;;;;5.33;3.33;;;12.20;99.90;;;;;;4981372;28;20635;-88
2022/11/10 00:38:19;;;;;;;7.40;3.47;;;11.70;99.90;;;;;;4980823;28;20625;-88
2022/11/10 00:40:47;;;;;;;3.20;3.00;;;12.40;99.90;;;;;;4982629;28;20652;-88
2022/11/10 00:43:14;;;;;;;4.90;3.80;;;11.80;99.90;;;;;;4979617;28;20633;-88
2022/11/10 00:45:44;;;;;;;4.47;3.20;;;12.20;99.90;;;;;;4984962;28;20749;-87
2022/11/10 00:48:11;;;;;;;4.27;3.83;;;12.10;99.90;;;;;;4981842;28;20661;-89
2022/11/10 00:50:37;;;;;;;4.90;3.20;;;11.80;99.90;;;;;;4976686;28;20665;-88
2022/11/10 00:53:04;;;;;;;4.00;3.60;;;12.00;99.90;;;;;;4973466;28;20680;-88
2022/11/10 00:55:31;;;;;;;5.33;3.30;;;11.80;99.90;;;;;;4978145;28;20637;-88
2022/11/10 00:57:58;;;;;;;7.67;2.93;;;11.90;99.90;;;;;;4986551;28;20638;-88
2022/11/10 01:00:25;;;;;;;4.03;2.90;;;12.20;99.90;;;;;;4985281;28;20652;-88
2022/11/10 01:02:53;;;;;;;4.93;3.20;;;12.20;99.90;;;;;;4982505;28;20647;-88
2022/11/10 01:05:21;;;;;;;4.07;2.77;;;11.90;99.90;;;;;;4977288;28;20633;-87
2022/11/10 01:07:47;;;;;;;3.80;2.57;;;11.80;99.90;;;;;;4985179;28;21009;-87
2022/11/10 01:10:14;;;;;;;3.80;2.73;;;11.70;99.90;;;;;;4983021;28;20656;-87
2022/11/10 01:12:41;;;;;;;4.87;2.20;;;12.00;99.90;;;;;;4982057;28;20671;-87
2022/11/10 01:15:09;;;;;;;5.63;2.40;;;12.00;99.90;;;;;;4984602;28;21012;-86
2022/11/10 01:17:36;;;;;;;3.83;2.50;;;12.40;99.90;;;;;;4984670;28;20646;-87
2022/11/10 01:20:07;;;;;;;4.07;2.50;;;11.80;99.90;;;;;;4982623;28;20664;-86
2022/11/10 01:22:34;;;;;;;5.60;2.13;;;12.20;99.90;;;;;;4976646;28;20737;-87
2022/11/10 01:25:00;;;;;;;3.83;2.37;;;11.80;99.90;;;;;;4980366;28;20640;-87
2022/11/10 01:27:27;;;;;;;3.80;2.67;;;12.10;99.90;;;;;;4979229;28;20625;-87
2022/11/10 01:29:54;;;;;;;5.67;2.33;;;11.70;99.90;;;;;;4983171;28;20675;-87
2022/11/10 01:32:21;;;;;;;4.20;2.07;;;12.40;99.90;;;;;;4979863;28;20628;-87
2022/11/10 01:34:47;;;;;;;5.57;2.40;;;11.80;99.90;;;;;;4980208;28;20644;-87
2022/11/10 01:37:15;;;;;;;4.20;2.60;;;11.90;99.90;;;;;;4985037;28;20629;-87
2022/11/10 01:39:42;;;;;;;4.13;1.93;;;11.80;99.90;;;;;;4979470;28;20649;-88
2022/11/10 01:42:09;;;;;;;5.50;2.10;;;11.80;99.90;;;;;;4976149;28;20629;-87
2022/11/10 01:44:36;;;;;;;5.30;2.57;;;11.80;99.90;;;;;;4981242;28;20624;-87
2022/11/10 01:47:03;;;;;;;5.50;2.43;;;11.70;99.90;;;;;;4982031;28;20632;-88
2022/11/10 01:49:31;;;;;;;5.73;2.33;;;11.80;99.90;;;;;;4977679;28;20680;-87
2022/11/10 01:52:01;;;;;;;10.47;2.43;;;12.20;99.90;;;;;;4976356;28;20715;-87
2022/11/10 01:54:34;;;;;;;4.43;2.33;;;11.80;99.90;;;;;;4980619;28;21249;-87
2022/11/10 01:57:04;;;;;;;5.53;3.03;;;11.70;99.90;;;;;;4973194;28;20637;-87
2022/11/10 01:59:35;;;;;;;6.00;2.60;;;11.80;99.90;;;;;;4978804;28;20687;-86
2022/11/10 02:02:09;;;;;;;5.47;2.37;;;11.90;99.90;;;;;;4979464;28;20620;-86
2022/11/10 02:04:38;;;;;;;7.23;2.80;;;12.10;99.90;;;;;;4979372;28;20636;-86
2022/11/10 02:07:05;;;;;;;5.80;2.47;;;12.30;99.90;;;;;;4979368;28;21116;-86
2022/11/10 02:09:33;;;;;;;4.30;2.10;;;11.90;99.90;;;;;;4977415;28;20673;-87
2022/11/10 02:12:00;;;;;;;4.90;1.80;;;11.70;99.90;;;;;;4984637;28;21179;-88
2022/11/10 02:14:27;;;;;;;4.13;2.07;;;11.70;99.90;;;;;;4977222;28;20636;-87
2022/11/10 02:16:54;;;;;;;3.47;2.03;;;11.90;99.90;;;;;;4974422;28;21208;-86
2022/11/10 02:19:23;;;;;;;7.03;2.77;;;11.50;99.90;;;;;;4979285;28;20622;-87
2022/11/10 02:21:51;;;;;;;6.07;2.03;;;11.40;99.90;;;;;;4976791;28;20632;-87
2022/11/10 02:24:18;;;;;;;7.23;2.43;;;11.70;99.90;;;;;;4980981;28;20632;-87
2022/11/10 02:26:49;;;;;;;5.87;2.20;;;11.40;99.90;;;;;;4977429;28;20645;-86
2022/11/10 02:29:16;;;;;;;4.27;2.00;;;11.10;99.90;;;;;;4979792;28;20681;-87
2022/11/10 02:31:43;;;;;;;7.40;2.03;;;10.90;99.90;;;;;;4977162;28;20629;-86
2022/11/10 02:34:10;;;;;;;4.27;2.33;;;10.70;99.90;;;;;;4977100;28;20633;-86
2022/11/10 02:36:37;;;;;;;5.70;2.20;;;10.90;99.90;;;;;;4979580;28;20628;-86
2022/11/10 02:39:05;;;;;;;9.77;2.37;;;10.70;99.90;;;;;;4983423;28;20658;-86
2022/11/10 02:41:32;;;;;;;5.60;1.87;;;10.70;99.90;;;;;;4984947;28;20635;-86
2022/11/10 02:43:59;;;;;;;5.53;1.90;;;11.00;99.90;;;;;;4974714;28;21189;-86
2022/11/10 02:46:26;;;;;;;4.20;1.70;;;10.50;99.90;;;;;;4982730;28;20775;-86
2022/11/10 02:48:53;;;;;;;2.83;1.73;;;10.40;99.90;;;;;;4976313;28;20667;-86
2022/11/10 02:51:20;;;;;;;4.43;2.23;;;10.90;99.90;;;;;;4979180;28;20652;-86
2022/11/10 02:53:46;;;;;;;3.90;1.97;;;10.60;99.90;;;;;;4977724;28;20686;-86
2022/11/10 02:56:14;;;;;;;3.00;2.00;;;10.50;99.90;;;;;;4978782;28;20675;-86
2022/11/10 02:58:41;;;;;;;4.10;1.97;;;10.70;99.90;;;;;;4976900;28;20628;-86
2022/11/10 03:01:08;;;;;;;3.17;2.50;;;10.90;99.90;;;;;;4975306;28;20630;-87
2022/11/10 03:03:35;;;;;;;6.63;2.60;;;10.30;99.90;;;;;;4978320;28;20637;-86
2022/11/10 03:06:02;;;;;;;8.13;2.00;;;10.70;99.90;;;;;;4978606;28;20631;-86
2022/11/10 03:08:29;;;;;;;4.97;2.20;;;10.80;99.90;;;;;;4979157;28;20637;-87
2022/11/10 03:10:56;;;;;;;3.93;2.23;;;10.60;99.90;;;;;;4975176;28;20625;-87
2022/11/10 03:13:25;;;;;;;6.00;3.30;;;10.70;99.90;;;;;;4974493;28;20628;-87
2022/11/10 03:15:53;;;;;;;5.03;1.90;;;10.10;99.90;;;;;;4976706;28;20622;-87
2022/11/10 03:18:20;;;;;;;4.30;2.03;;;10.00;99.90;;;;;;4975483;28;20640;-87
2022/11/10 03:20:48;;;;;;;6.13;2.73;;;10.10;99.90;;;;;;4979193;28;20636;-86
2022/11/10 03:23:15;;;;;;;4.40;2.00;;;10.70;99.90;;;;;;4964299;28;21069;-87
2022/11/10 03:25:42;;;;;;;6.00;2.30;;;10.20;99.90;;;;;;4973390;28;20633;-87
2022/11/10 03:28:09;;;;;;;6.53;2.80;;;10.40;99.90;;;;;;4975065;28;20636;-86
2022/11/10 03:30:38;;;;;;;4.30;2.10;;;10.20;99.90;;;;;;4982637;28;21259;-87
2022/11/10 03:33:05;;;;;;;10.20;2.57;;;9.90;99.90;;;;;;4984071;28;20661;-87
2022/11/10 03:35:32;;;;;;;3.73;2.33;;;10.50;99.90;;;;;;4981203;28;20632;-86
2022/11/10 03:37:59;;;;;;;3.90;2.00;;;10.40;99.90;;;;;;4978054;28;20636;-86
2022/11/10 03:40:26;;;;;;;6.57;2.40;;;10.40;99.90;;;;;;4976889;28;20640;-86
2022/11/10 03:42:53;;;;;;;3.40;1.90;;;10.50;99.90;;;;;;4976743;28;20676;-87
2022/11/10 03:45:20;;;;;;;6.50;2.30;;;10.00;99.90;;;;;;4978570;28;20640;-86
2022/11/10 03:47:49;;;;;;;6.90;3.00;;;10.50;99.90;;;;;;4975811;28;20639;-87
2022/11/10 03:50:17;;;;;;;5.07;2.50;;;10.40;99.90;;;;;;4989774;28;20715;-86
2022/11/10 03:52:46;;;;;;;6.23;2.70;;;10.50;99.90;;;;;;4981390;28;20669;-86
2022/11/10 03:55:15;;;;;;;5.70;2.50;;;10.50;99.90;;;;;;4987353;28;21181;-86
2022/11/10 03:57:42;;;;;;;4.60;2.50;;;10.40;99.90;;;;;;4985283;28;20636;-87
2022/11/10 04:00:11;;;;;;;4.40;2.30;;;10.00;99.90;;;;;;4983375;28;20628;-87
2022/11/10 04:02:39;;;;;;;5.60;2.20;;;10.40;99.90;;;;;;4988156;28;20679;-87
2022/11/10 04:10:44;;;;;;;6.10;2.53;;;10.30;99.90;;;;;;4985234;28;20664;-86
2022/11/10 04:15:56;;;;;;;12.60;2.90;;;10.40;99.90;;;;;;4987914;28;21156;-86
2022/11/10 04:18:24;;;;;;;6.97;2.50;;;10.00;99.90;;;;;;4981337;28;20628;-86
2022/11/10 04:20:54;;;;;;;4.13;2.50;;;10.00;99.90;;;;;;4983640;28;20629;-86
2022/11/10 04:23:29;;;;;;;10.60;3.60;;;9.60;99.90;;;;;;4983064;28;20664;-87
2022/11/10 04:28:45;;;;;;;3.70;2.57;;;9.70;99.90;;;;;;4985091;28;20577;-87
2022/11/10 04:31:12;;;;;;;4.50;2.70;;;10.10;99.90;;;;;;4986377;28;20655;-87
2022/11/10 04:33:40;;;;;;;9.33;3.50;;;9.40;99.90;;;;;;4983493;28;20636;-86
2022/11/10 04:36:10;;;;;;;5.23;2.77;;;9.90;99.90;;;;;;4983875;28;20628;-86
2022/11/10 04:38:36;;;;;;;9.83;2.63;;;9.80;99.90;;;;;;4984604;28;20640;-86
2022/11/10 04:41:03;;;;;;;4.17;3.00;;;9.40;99.90;;;;;;4987585;28;20628;-86
2022/11/10 04:43:30;;;;;;;7.30;2.90;;;9.70;99.90;;;;;;4986154;28;20639;-86
2022/11/10 04:45:57;;;;;;;5.17;2.50;;;9.70;99.90;;;;;;4984564;28;20632;-86
2022/11/10 04:48:25;;;;;;;7.70;3.07;;;9.40;99.90;;;;;;4983993;28;20636;-87
2022/11/10 04:50:52;;;;;;;4.87;2.80;;;9.40;99.90;;;;;;4987383;28;21252;-86
2022/11/10 04:53:21;;;;;;;3.93;2.50;;;9.50;99.90;;;;;;4985521;28;20660;-86
2022/11/10 04:55:48;;;;;;;4.23;3.00;;;9.50;99.90;;;;;;4985258;28;20640;-86
2022/11/10 04:58:15;;;;;;;5.67;2.97;;;9.20;99.90;;;;;;4985328;28;20640;-85
2022/11/10 05:00:42;;;;;;;6.20;2.70;;;9.50;99.90;;;;;;4983099;28;20629;-85
2022/11/10 05:03:12;;;;;;;2.97;2.40;;;9.30;99.90;;;;;;4985639;28;20660;-86
2022/11/10 05:05:39;;;;;;;8.20;2.97;;;9.60;99.90;;;;;;4981256;28;20633;-85
2022/11/10 05:08:06;;;;;;;5.87;3.17;;;9.50;99.90;;;;;;4982887;28;21169;-85
2022/11/10 05:10:35;;;;;;;4.30;3.30;;;9.10;99.90;;;;;;4980194;28;20664;-85
2022/11/10 05:13:03;;;;;;;3.77;3.27;;;9.10;99.90;;;;;;4984701;28;20656;-85
2022/11/10 05:15:31;;;;;;;5.30;2.80;;;8.90;99.90;;;;;;4983679;28;20901;-87
2022/11/10 05:17:59;;;;;;;9.20;3.40;;;8.80;99.90;;;;;;4981819;28;20629;-86
2022/11/10 05:20:26;;;;;;;4.87;2.70;;;9.40;99.90;;;;;;4989387;28;20635;-86
2022/11/10 05:25:40;;;;;;;4.77;2.87;;;8.70;99.90;;;;;;4979427;28;20678;-85
2022/11/10 05:28:09;;;;;;;7.13;4.13;;;9.30;99.90;;;;;;4982536;28;20651;-87
2022/11/10 05:30:36;;;;;;;7.43;3.43;;;8.60;99.90;;;;;;4979957;28;20673;-85
2022/11/10 05:33:03;;;;;;;9.93;4.50;;;9.00;99.90;;;;;;4984772;28;20693;-86
2022/11/10 05:35:30;;;;;;;6.50;3.90;;;8.70;99.90;;;;;;4984526;28;20829;-87
2022/11/10 05:37:57;;;;;;;7.07;3.87;;;8.90;99.90;;;;;;4977931;28;21140;-85
2022/11/10 05:40:24;;;;;;;6.30;3.53;;;8.80;99.90;;;;;;4988474;28;20997;-87
2022/11/10 05:42:53;;;;;;;5.50;3.03;;;8.50;99.90;;;;;;4977131;28;20636;-84
2022/11/10 05:45:21;;;;;;;4.80;3.60;;;9.00;99.90;;;;;;4983788;28;20636;-85
2022/11/10 05:47:48;;;;;;;8.53;3.80;;;8.80;99.90;;;;;;4984962;28;20659;-84
2022/11/10 05:50:15;;;;;;;5.03;3.80;;;8.80;99.90;;;;;;4979976;28;20664;-84
2022/11/10 05:52:44;;;;;;;9.57;3.93;;;8.30;99.90;;;;;;4984213;28;20629;-84
2022/11/10 05:55:12;;;;;;;6.30;3.07;;;8.60;99.90;;;;;;4980631;28;20636;-83
2022/11/10 05:57:38;;;;;;;8.80;3.30;;;8.50;99.90;;;;;;4982684;28;20684;-83
2022/11/10 06:00:09;;;;;;;4.13;3.20;;;8.30;99.90;;;;;;4985745;28;20632;-84
2022/11/10 06:02:36;;;;;;;5.20;3.90;;;8.70;99.90;;;;;;4982232;28;20656;-84
2022/11/10 06:05:03;;;;;;;7.30;3.03;;;8.30;99.90;;;;;;4985718;28;20640;-83
2022/11/10 06:07:30;;;;;;;4.50;2.80;;;8.50;99.90;;;;;;4983456;28;20644;-83
2022/11/10 06:09:57;;;;;;;6.97;3.20;;;8.60;99.90;;;;;;4981064;28;20660;-84
2022/11/10 06:12:24;;;;;;;6.43;2.67;;;8.40;99.90;;;;;;4979064;28;20640;-84
2022/11/10 06:14:51;;;;;;;4.87;3.20;;;8.40;99.90;;;;;;4982641;28;21114;-84
2022/11/10 06:17:19;;;;;;;5.80;3.33;;;8.40;99.90;;;;;;4985530;28;20748;-84
2022/11/10 06:19:46;;;;;;;6.10;3.33;;;8.40;99.90;;;;;;4983034;28;20635;-86
2022/11/10 06:22:13;;;;;;;8.37;3.00;;;7.90;99.90;;;;;;4985158;28;20632;-84
2022/11/10 06:24:39;;;;;;;6.27;3.03;;;7.80;99.90;;;;;;4982277;28;20635;-84
2022/11/10 06:27:06;;;;;;;4.10;3.40;;;8.30;99.90;;;;;;4986405;28;20648;-84
2022/11/10 06:29:33;;;;;;;4.57;3.30;;;8.40;99.90;;;;;;4982794;28;20677;-85
2022/11/10 06:32:00;;;;;;;6.03;4.10;;;8.20;99.90;;;;;;4984928;28;20680;-84
2022/11/10 06:34:28;;;;;;;5.30;4.07;;;8.10;99.90;;;;;;4985877;28;20641;-84
2022/11/10 06:36:55;;;;;;;5.50;3.70;;;7.90;99.90;;;;;;4986246;28;21212;-86
2022/11/10 06:39:23;;;;;;;5.67;4.30;;;8.20;99.90;;;;;;4986817;28;20640;-86
2022/11/10 06:41:50;;;;;;;4.90;4.30;;;8.10;99.90;;;;;;4989381;28;20628;-85
2022/11/10 06:44:16;;;;;;;7.33;4.93;;;8.20;99.90;;;;;;4982907;28;20637;-86
2022/11/10 06:46:44;;;;;;;8.53;4.73;;;8.30;99.90;;;;;;4973134;28;20667;-86
2022/11/10 06:49:11;;;;;;;6.07;5.10;;;7.70;99.90;;;;;;4982499;28;20740;-86
2022/11/10 06:51:39;;;;;;;8.40;4.70;;;8.00;99.90;;;;;;4986338;28;20684;-86
2022/11/10 06:54:06;;;;;;;7.37;4.43;;;8.20;99.90;;;;;;4977144;28;21033;-86
2022/11/10 06:56:33;;;;;;;7.50;5.47;;;8.60;99.90;;;;;;4982659;28;20661;-87
2022/11/10 06:59:00;;;;;;;7.93;5.33;;;8.00;99.90;;;;;;4982765;28;20716;-86
2022/11/10 07:01:27;;;;;;;7.47;5.80;;;8.50;99.90;;;;;;4983794;28;21435;-86
2022/11/10 07:03:54;;;;;;;6.80;5.37;;;8.40;99.90;;;;;;4982338;28;20647;-86
2022/11/10 07:06:22;;;;;;;7.23;6.40;;;8.60;99.90;;;;;;4984248;28;20651;-86
2022/11/10 07:08:50;;;;;;;9.43;6.70;;;8.60;99.90;;;;;;4981141;28;20613;-87
2022/11/10 07:11:17;;;;;;;18.17;16.57;;;9.10;99.90;;;;;;4983454;28;20664;-86
2022/11/10 07:13:44;;;;;;;24.83;22.87;;;9.00;99.90;;;;;;4978760;28;20629;-86
2022/11/10 07:16:11;;;;;;;23.50;21.30;;;9.00;99.90;;;;;;4980791;28;20633;-86
2022/11/10 07:18:38;;;;;;;15.40;11.03;;;8.90;99.90;;;;;;4982548;28;20637;-86
2022/11/10 07:21:06;;;;;;;12.10;9.33;;;9.50;99.90;;;;;;4980703;28;20625;-87
2022/11/10 07:23:33;;;;;;;10.60;9.60;;;9.50;99.90;;;;;;4978333;28;21270;-86
2022/11/10 07:26:03;;;;;;;16.30;11.93;;;9.30;99.90;;;;;;4976231;28;20688;-85
2022/11/10 07:28:30;;;;;;;13.50;10.33;;;9.40;99.90;;;;;;4981408;28;20657;-86
2022/11/10 07:30:57;;;;;;;13.93;9.60;;;9.20;99.90;;;;;;4986695;28;20670;-86
2022/11/10 07:33:24;;;;;;;27.20;24.80;;;9.80;99.90;;;;;;4986120;28;20617;-86
2022/11/10 07:35:54;;;;;;;12.07;10.87;;;9.80;99.90;;;;;;4980616;28;20627;-86
2022/11/10 07:38:20;;;;;;;9.77;8.93;;;9.70;99.90;;;;;;4991095;28;20715;-86
2022/11/10 07:40:51;;;;;;;9.67;8.77;;;9.60;99.90;;;;;;4981034;28;20787;-87
2022/11/10 07:43:19;;;;;;;12.43;9.60;;;9.60;99.90;;;;;;4987150;28;20639;-87
2022/11/10 07:45:46;;;;;;;11.10;8.13;;;10.10;99.90;;;;;;4991089;28;20700;-86
2022/11/10 07:48:14;;;;;;;8.37;7.67;;;10.10;99.90;;;;;;4977899;28;20660;-87
2022/11/10 07:50:42;;;;;;;8.47;6.97;;;9.70;99.90;;;;;;4981418;28;20672;-87
2022/11/10 07:53:10;;;;;;;7.83;7.03;;;10.10;99.90;;;;;;4986301;28;20643;-87
2022/11/10 07:55:39;;;;;;;8.17;7.40;;;9.90;99.90;;;;;;4985028;28;20637;-87
2022/11/10 07:58:06;;;;;;;8.50;7.00;;;10.00;99.90;;;;;;4984145;28;20727;-87
2022/11/10 08:00:35;;;;;;;8.00;7.20;;;10.10;99.90;;;;;;4981878;28;20633;-87
2022/11/10 08:03:03;;;;;;;10.33;7.47;;;10.30;99.90;;;;;;4981398;28;20743;-86
2022/11/10 08:05:31;;;;;;;9.10;8.30;;;10.50;99.90;;;;;;4983800;28;20625;-87
2022/11/10 08:07:58;;;;;;;9.20;8.23;;;10.00;99.90;;;;;;4983652;28;20656;-87
2022/11/10 08:10:25;;;;;;;10.53;8.60;;;10.70;99.90;;;;;;4983334;28;20763;-87
2022/11/10 08:12:56;;;;;;;8.23;7.43;;;10.20;99.90;;;;;;4982166;28;20629;-87
2022/11/10 08:15:24;;;;;;;12.23;7.00;;;10.60;99.90;;;;;;4981833;28;20632;-87
2022/11/10 08:17:57;;;;;;;8.17;7.37;;;10.30;99.90;;;;;;4984336;28;20655;-88
2022/11/10 08:20:24;;;;;;;7.70;7.00;;;10.70;99.90;;;;;;4980245;28;20657;-88
2022/11/10 08:22:56;;;;;;;9.73;7.80;;;10.30;99.90;;;;;;4981527;28;21254;-88
2022/11/10 08:25:23;;;;;;;8.17;7.47;;;10.50;99.90;;;;;;4986488;28;20933;-88
2022/11/10 08:27:56;;;;;;;8.00;7.07;;;10.80;99.90;;;;;;4979141;28;20651;-87
2022/11/10 08:30:23;;;;;;;7.80;6.57;;;10.50;99.90;;;;;;4983598;28;20699;-87
2022/11/10 08:32:53;;;;;;;8.83;7.93;;;10.40;99.90;;;;;;4982046;28;20636;-87
2022/11/10 08:35:19;;;;;;;9.10;8.30;;;10.70;99.90;;;;;;4980413;28;20629;-87
2022/11/10 08:37:46;;;;;;;10.67;9.10;;;10.50;99.90;;;;;;4986202;28;20653;-87
2022/11/10 08:40:14;;;;;;;11.80;10.80;;;10.50;99.90;;;;;;4983785;28;20654;-86
2022/11/10 08:42:41;;;;;;;13.27;12.27;;;11.00;99.90;;;;;;4986993;28;21011;-87
2022/11/10 08:45:08;;;;;;;14.50;13.17;;;11.30;99.90;;;;;;4986630;28;20694;-92
2022/11/10 08:47:35;;;;;;;15.03;13.83;;;11.20;99.90;;;;;;4985728;28;20668;-87
2022/11/10 08:50:08;;;;;;;13.17;11.97;;;11.10;99.90;;;;;;4991943;28;20629;-87
2022/11/10 08:52:35;;;;;;;14.20;12.80;;;11.50;99.90;;;;;;4984823;28;20653;-87
2022/11/10 08:55:02;;;;;;;12.40;11.20;;;11.50;99.90;;;;;;4983262;28;20624;-87
2022/11/10 08:57:28;;;;;;;10.10;9.10;;;11.60;99.90;;;;;;4981620;28;21413;-87
2022/11/10 08:59:55;;;;;;;8.90;8.10;;;11.60;99.90;;;;;;4984755;28;20659;-87
2022/11/10 09:02:22;;;;;;;6.80;6.30;;;11.60;99.90;;;;;;4987198;28;20655;-89
2022/11/10 09:04:52;;;;;;;5.90;5.40;;;11.80;99.90;;;;;;4986910;28;20639;-88
2022/11/10 09:07:20;;;;;;;7.33;6.23;;;11.80;99.90;;;;;;4989609;28;20693;-88
2022/11/10 09:09:47;;;;;;;5.23;4.73;;;12.30;99.90;;;;;;4988457;28;20643;-88
2022/11/10 09:12:14;;;;;;;6.07;5.57;;;12.10;99.90;;;;;;4989402;28;20672;-89
2022/11/10 09:14:41;;;;;;;5.83;5.30;;;12.70;99.90;;;;;;4991632;28;20694;-88
2022/11/10 09:17:08;;;;;;;5.40;4.93;;;12.80;99.90;;;;;;4990936;28;20632;-88
2022/11/10 09:19:35;;;;;;;5.00;4.47;;;12.90;99.90;;;;;;4986086;28;20620;-88
2022/11/10 09:22:02;;;;;;;6.33;5.43;;;13.00;99.90;;;;;;4989895;28;20655;-87
2022/11/10 09:24:30;;;;;;;5.60;4.60;;;13.10;99.90;;;;;;4984523;28;20668;-86
2022/11/10 09:26:58;;;;;;;5.90;5.30;;;13.30;99.90;;;;;;4986264;28;20740;-88
2022/11/10 09:29:25;;;;;;;5.17;4.50;;;13.20;99.90;;;;;;4986037;28;20635;-88
2022/11/10 09:31:51;;;;;;;7.73;4.60;;;13.60;99.90;;;;;;4985595;28;20672;-88
2022/11/10 09:34:18;;;;;;;4.77;4.37;;;13.70;99.90;;;;;;4986313;28;20672;-87
2022/11/10 09:36:46;;;;;;;6.43;4.83;;;13.90;99.90;;;;;;4980970;28;20652;-88
2022/11/10 09:39:14;;;;;;;5.70;5.20;;;13.90;99.90;;;;;;4980044;28;20648;-86
2022/11/10 09:41:43;;;;;;;4.83;4.47;;;14.10;99.90;;;;;;4988381;28;20717;-87
2022/11/10 09:44:16;;;;;;;4.70;4.30;;;14.30;99.90;;;;;;4981088;28;21265;-87
2022/11/10 09:46:48;;;;;;;4.90;4.50;;;14.40;99.90;;;;;;4983013;28;20620;-87
2022/11/10 09:49:31;;;;;;;5.03;4.17;;;14.60;99.90;;;;;;4981217;28;21009;-87
2022/11/10 09:51:59;;;;;;;4.77;4.37;;;14.80;99.90;;;;;;4986797;28;20787;-87
2022/11/10 09:54:38;;;;;;;3.50;3.30;;;15.10;99.90;;;;;;4978711;28;20715;-88
2022/11/10 09:57:11;;;;;;;5.33;3.60;;;15.00;99.90;;;;;;4984533;28;20641;-87
2022/11/10 09:59:38;;;;;;;4.23;3.87;;;15.40;99.90;;;;;;4985631;28;21016;-88
2022/11/10 10:02:12;;;;;;;4.63;3.87;;;15.50;99.90;;;;;;4982205;28;20959;-87
2022/11/10 10:04:53;;;;;;;6.37;3.30;;;15.60;99.90;;;;;;4983724;28;20662;-87
2022/11/10 10:07:25;;;;;;;4.07;3.17;;;16.00;85.70;;;;;;4989005;28;20706;-88
2022/11/10 10:10:01;;;;;;;3.57;2.60;;;16.30;41.30;;;;;;4983843;28;20636;-87
2022/11/10 10:12:56;;;;;;;3.53;2.20;;;16.50;1.00;;;;;;4982835;28;20664;-88
2022/11/10 10:15:35;;;;;;;2.20;1.97;;;16.90;1.00;;;;;;4979893;28;20645;-88
2022/11/10 10:18:20;;;;;;;2.90;1.83;;;17.10;1.00;;;;;;4980435;28;20628;-87
2022/11/10 10:20:56;;;;;;;2.33;1.70;;;17.10;1.00;;;;;;4986458;28;20632;-88
2022/11/10 10:23:27;;;;;;;4.67;2.37;;;17.20;1.00;;;;;;4985665;28;20663;-88
2022/11/10 10:25:54;;;;;;;6.40;1.90;;;17.50;1.00;;;;;;4983224;28;20629;-87
2022/11/10 10:28:28;;;;;;;5.27;2.30;;;17.80;1.00;;;;;;4982035;28;20636;-87
2022/11/10 10:31:02;;;;;;;4.30;2.40;;;18.10;99.90;;;;;;4979670;28;20668;-87
2022/11/10 10:33:29;;;;;;;6.50;2.80;;;18.30;61.50;;;;;;4985905;28;20657;-87
2022/11/10 10:35:56;;;;;;;4.23;3.17;;;18.60;99.90;;;;;;4981901;28;20625;-89
2022/11/10 10:38:26;;;;;;;4.27;2.53;;;19.00;1.00;;;;;;4982218;28;20636;-88
2022/11/10 10:41:02;;;;;;;4.30;2.30;;;19.10;1.00;;;;;;4982288;28;20624;-88
2022/11/10 10:43:32;;;;;;;1.93;1.83;;;19.00;1.00;;;;;;4980327;28;20744;-88
2022/11/10 10:46:05;;;;;;;4.10;2.67;;;19.10;1.00;;;;;;4983411;28;21062;-89
2022/11/10 10:48:32;;;;;;;4.07;2.40;;;19.20;1.00;;;;;;4982446;28;21265;-88
2022/11/10 10:50:59;;;;;;;3.30;2.00;;;19.60;1.00;;;;;;4984811;28;20679;-88
2022/11/10 10:53:25;;;;;;;2.00;1.70;;;19.80;99.90;;;;;;4985238;28;21013;-88
2022/11/10 10:55:59;;;;;;;3.43;2.10;;;20.00;1.00;;;;;;4982087;28;20636;-87
2022/11/10 10:58:29;;;;;;;2.53;2.10;;;20.20;1.00;;;;;;4980458;28;20629;-88
2022/11/10 11:01:03;;;;;;;3.40;1.43;;;20.40;1.00;;;;;;4979969;28;21166;-88
2022/11/10 11:03:39;;;;;;;4.00;1.93;;;20.30;1.00;;;;;;4980891;28;20667;-88
2022/11/10 11:06:17;;;;;;;4.00;1.80;;;20.50;30.00;;;;;;4982200;28;20686;-88
2022/11/10 11:08:54;;;;;;;3.80;2.23;;;20.50;1.00;;;;;;4983432;28;20637;-88
2022/11/10 11:11:25;;;;;;;4.47;2.20;;;20.80;99.90;;;;;;4970685;28;20750;-87
2022/11/10 11:13:51;;;;;;;2.70;1.80;;;21.10;99.90;;;;;;4983908;28;20649;-86
2022/11/10 11:16:23;;;;;;;2.60;1.80;;;20.60;1.00;;;;;;4993387;28;20633;-87
2022/11/10 11:18:50;;;;;;;6.87;2.00;;;20.30;99.90;;;;;;4982393;28;21161;-88
2022/11/10 11:21:27;;;;;;;3.50;1.67;;;20.00;77.20;;;;;;4981136;28;20628;-88
2022/11/10 11:24:13;;;;;;;2.20;1.37;;;19.80;99.90;;;;;;4980706;28;20644;-88
2022/11/10 11:26:48;;;;;;;1.73;1.43;;;19.80;99.90;;;;;;4980534;28;21189;-88
2022/11/10 11:29:35;;;;;;;13.33;2.73;;;19.90;99.90;;;;;;4978876;28;20624;-87
2022/11/10 11:32:17;;;;;;;3.60;1.53;;;20.50;99.90;;;;;;4980440;28;20732;-87
2022/11/10 11:34:55;;;;;;;3.20;1.30;;;20.60;99.90;;;;;;4977269;28;20784;-88
2022/11/10 11:37:28;;;;;;;2.77;1.50;;;20.90;1.00;;;;;;4978433;28;20995;-88
2022/11/10 11:40:11;;;;;;;4.33;3.10;;;21.20;1.00;;;;;;4980335;28;20624;-88
2022/11/10 11:42:56;;;;;;;2.70;1.77;;;21.40;1.00;;;;;;4980072;28;20620;-88
2022/11/10 11:45:29;;;;;;;3.47;2.10;;;21.50;99.90;;;;;;4980006;28;20628;-89
2022/11/10 11:48:13;;;;;;;3.50;1.10;;;21.60;1.00;;;;;;4980877;28;20643;-89
2022/11/10 11:50:44;;;;;;;1.77;1.10;;;21.90;99.90;;;;;;4976270;28;20719;-89
2022/11/10 11:53:22;;;;;;;2.83;1.13;;;22.20;99.90;;;;;;4977851;28;20668;-88
2022/11/10 11:56:00;;;;;;;4.40;1.33;;;22.30;99.90;;;;;;4978977;28;20663;-88
2022/11/10 11:58:41;;;;;;;3.50;1.00;;;22.50;1.00;;;;;;4977144;28;20627;-89
2022/11/10 12:01:23;;;;;;;2.07;1.10;;;22.20;1.00;;;;;;4982194;28;20632;-88
2022/11/10 12:04:31;;;;;;;3.73;0.93;;;22.10;99.90;;;;;;4980650;28;20648;-88
2022/11/10 12:07:10;;;;;;;2.50;1.50;;;22.00;1.00;;;;;;4962831;28;20645;-88
2022/11/10 12:09:43;;;;;;;4.07;1.47;;;22.20;1.00;;;;;;4979890;28;20625;-88
2022/11/10 12:12:33;;;;;;;3.33;1.37;;;22.40;99.90;;;;;;4982402;28;20947;-88
2022/11/10 12:15:17;;;;;;;5.53;1.30;;;22.70;1.00;;;;;;4986466;28;20751;-88
2022/11/10 12:17:55;;;;;;;4.73;1.20;;;23.10;99.90;;;;;;4986265;28;20720;-87
2022/11/10 12:24:21;;;;;;;3.13;1.40;;;21.20;99.90;;;;;;4896035;29;20657;-89
2022/11/10 12:36:22;;;;;;;;;;;;;;;;;;;;;
2022/11/10 12:45:46;;;;;;;1.43;0.90;;;21.00;22.50;;;;;;4984865;28;20655;-88
2022/11/10 12:48:59;;;;;;;;;;;;;;;;;;;;;
2022/11/10 12:51:49;;;;;;;2.63;1.00;;;22.80;99.90;;;;;;4979555;28;21132;-89
2022/11/10 12:54:19;;;;;;;1.00;0.87;;;23.30;99.90;;;;;;4990154;28;20645;-90
2022/11/10 12:56:50;;;;;;;4.67;0.87;;;23.80;1.00;;;;;;4982882;28;20713;-89
2022/11/10 12:59:28;;;;;;;1.57;1.07;;;22.70;99.90;;;;;;4985575;28;20613;-91
2022/11/10 13:02:01;;;;;;;2.77;1.03;;;23.70;1.00;;;;;;4988389;28;20743;-90
2022/11/10 13:04:29;;;;;;;4.30;0.90;;;23.30;1.00;;;;;;4985399;28;20762;-90
2022/11/10 13:07:00;;;;;;;1.80;1.00;;;25.10;1.00;;;;;;4983876;28;20628;-91
2022/11/10 13:09:29;;;;;;;1.40;1.00;;;23.60;1.00;;;;;;4984056;28;20629;-90
2022/11/10 13:12:20;;;;;;;2.50;1.23;;;24.60;1.00;;;;;;4985807;28;20647;-88
2022/11/10 13:14:47;;;;;;;1.80;1.00;;;21.50;1.00;;;;;;4981510;28;20656;-89
2022/11/10 13:17:54;;;;;;;4.13;1.90;;;22.20;1.00;;;;;;4982574;28;20632;-90
2022/11/10 13:20:46;;;;;;;2.27;1.00;;;23.10;1.00;;;;;;4926388;29;20638;-90
2022/11/10 13:23:25;;;;;;;4.60;1.10;;;23.60;1.00;;;;;;4968144;28;20725;-92
2022/11/10 13:25:56;;;;;;;4.00;1.23;;;24.10;1.00;;;;;;4990085;28;20627;-91
2022/11/10 13:29:09;;;;;;;1.50;0.80;;;23.70;1.00;;;;;;4987428;28;20634;-89
2022/11/10 13:31:51;;;;;;;3.97;1.00;;;22.50;1.00;;;;;;4945442;29;20634;-90
2022/11/10 13:34:45;;;;;;;0.97;0.70;;;23.50;40.70;;;;;;4980926;28;20699;-90
2022/11/10 13:37:49;;;;;;;3.27;1.20;;;21.90;99.90;;;;;;4984677;28;20640;-90
2022/11/10 13:40:43;;;;;;;1.93;0.80;;;21.80;1.00;;;;;;4980924;28;20637;-90
2022/11/10 13:43:24;;;;;;;2.40;1.03;;;22.70;1.00;;;;;;4986598;28;20664;-91
2022/11/10 13:46:04;;;;;;;4.13;1.23;;;22.20;1.00;;;;;;4982188;28;20641;-92